Airfield :
LOGIN :

Register | Disclaimer

   EN    FR    IT 

 










Legend :    VFR   Marginal VFR   IFR   Intensive IFR   Very Intensive IFR
Visi :
Ceiling :
>= 8 km
>= 3000ft
5 to 8 km
1000 to 3000 ft
1500m to 5 km
500 to 1000 ft
800 to 1500m
200 to 500 ft
< 800m
< 200 ft
Symbols :   Thunderstorms  Fog  Heavy snow  Heavy precipitations  Wind > 20 kt
SIGMETs :     Misc.  Thunderstorms  Icing  Turbulence  Mountain Waves  Volcanic Ashes






- Airport Elevation : 235 ft
- IATA code : BZG


EPBY - Bydgoszcz

CURRENT METAR :
  • 282100Z 29006KT 9999 BKN007 OVC010 05/04 Q1022

EXPIRED METARs :
  • 282030Z 30007KT 9999 BKN006 05/04 Q1022
  • 282000Z 29006KT 9999 OVC007 05/04 Q1022
  • 281930Z 30005KT 9999 OVC005 05/04 Q1022
  • 281900Z 30005KT 9000 OVC005 05/04 Q1021
  • 281830Z 33008KT 9000 OVC005 05/04 Q1021
  • 281800Z 32009KT 9999 OVC007 06/04 Q1021
  • 281730Z 31007KT 9999 BKN006 06/04 Q1021
  • 281700Z 29007KT 9999 BKN009 06/05 Q1021
  • 281630Z 28007KT 9999 SCT006 OVC010 06/05 Q1020
  • 281600Z 29006KT 9000 -DZ BKN004 OVC008 06/06 Q1020

TAF TAF EPBY
Valid from the 28 at 18:00 until the 29 at 18:00 UTC


281730Z 2818/2918 30010KT 8000 BKN014
TEMPO 2818/2906 VRB02KT 4000 BR BKN010
PROB30
TEMPO 2818/2824 2500 -RADZ BR SCT006 BKN012
BECMG 2821/2824 BKN025
PROB40
TEMPO 2822/2906 0500 FG OVC002



MET'MAP, your aeronautical weather chart ! - Copyright ORBIFLY December 2007 - Disclaimer

ORBIFLY MET'MAP TEAM :

Programming & Development : Alexandra Zaïnal
Original concept : Baudouin d'Aumeries
Technical & hardware support : Manuel Goepfert
Assistance : Marc-Olivier Méhu




SOURCES & CREDITS :

   NOAA